Time;durP1;ratioP1;P1;durP2;ratioP2;P2;SDS_P1;SDS_P2;PMS_P1;PMS_P2;Temp;Humidity;BMP_temperature;BMP_pressure;BME280_temperature;BME280_humidity;BME280_pressure;Samples;Min_cycle;Max_cycle;Signal;HPM_P1;HPM_P2
2021/04/26 00:02:08;;;;;;;9.05;3.20;;;7.20;63.80;;;6.41;100.00;65180.75;5110116;27;20358;-56
2021/04/26 00:04:47;;;;;;;13.82;3.78;;;7.20;63.80;;;6.37;100.00;65180.75;5109733;27;20343;-53
2021/04/26 00:07:26;;;;;;;11.80;3.33;;;7.20;63.80;;;-147.08;100.00;65180.75;5109977;27;20355;-56
2021/04/26 00:09:53;;;;;;;;;;;7.20;63.60;;;-147.08;100.00;65180.75;5071631;28;20048;-54
2021/04/26 00:12:32;;;;;;;9.85;3.10;;;7.20;63.60;;;6.31;100.00;65180.75;5109859;27;20875;-54
2021/04/26 00:15:27;;;;;;;11.93;3.13;;;7.10;63.90;;;6.11;100.00;65180.75;5109622;27;21186;-53
2021/04/26 00:18:05;;;;;;;12.77;3.42;;;6.90;64.40;;;-147.08;0.00;65180.75;5118909;27;726751;-54
2021/04/26 00:20:44;;;;;;;8.68;2.50;;;6.70;65.10;;;-147.08;100.00;65180.75;5121385;27;726960;-54
2021/04/26 00:23:11;;;;;;;8.63;3.20;;;6.60;65.60;;;-147.08;100.00;65180.75;5109564;28;20040;-53
2021/04/26 00:25:49;;;;;;;12.25;3.00;;;6.60;65.30;;;-147.08;100.00;65180.75;5109792;27;20355;-51
2021/04/26 00:28:16;;;;;;;;;;;6.60;65.10;;;-147.08;100.00;65180.75;5089236;28;20056;-53
2021/04/26 00:30:55;;;;;;;9.57;3.08;;;6.60;65.10;;;-147.08;100.00;65180.75;5109997;27;20347;-53
2021/04/26 00:33:33;;;;;;;11.10;3.15;;;6.50;65.40;;;-147.08;100.00;65180.75;5110078;27;20350;-53
2021/04/26 00:36:12;;;;;;;9.23;3.03;;;6.60;65.00;;;-147.08;100.00;65180.75;5123221;27;736636;-53
2021/04/26 00:38:50;;;;;;;11.23;3.13;;;6.60;65.00;;;-147.08;100.00;65180.75;5115922;27;722948;-55
2021/04/26 00:41:17;;;;;;;9.48;2.90;;;6.60;64.80;;;-147.08;100.00;65180.75;5109924;28;20495;-53
2021/04/26 00:43:56;;;;;;;9.13;2.90;;;6.40;65.00;;;-147.08;100.00;65180.75;5109882;27;20358;-53
2021/04/26 00:46:34;;;;;;;10.05;2.67;;;6.40;65.30;;;-147.08;100.00;65180.75;5122437;27;729649;-54
2021/04/26 00:49:13;;;;;;;10.05;2.90;;;6.20;65.70;;;-147.08;100.00;65180.75;5109784;27;20357;-50
2021/04/26 00:51:51;;;;;;;9.48;3.08;;;6.20;66.00;;;-147.08;100.00;65180.75;5110096;27;20355;-54
2021/04/26 00:54:31;;;;;;;9.48;3.03;;;6.20;65.80;;;-147.08;100.00;65180.75;5109934;27;20351;-53
2021/04/26 00:57:09;;;;;;;10.45;2.92;;;6.10;66.40;;;-147.08;100.00;65180.75;5109618;27;20357;-56
2021/04/26 00:59:49;;;;;;;8.55;2.75;;;5.90;66.60;;;-147.08;100.00;65180.75;5109958;27;20712;-54
2021/04/26 01:02:27;;;;;;;12.75;3.40;;;6.10;66.00;;;-147.08;100.00;65180.75;5110160;27;20709;-55
2021/04/26 01:05:11;;;;;;;10.98;3.03;;;6.20;65.40;;;-147.08;100.00;65180.75;5109916;27;20343;-52
2021/04/26 01:07:51;;;;;;;12.27;3.20;;;6.20;65.40;;;-147.08;100.00;65180.75;5109966;27;20683;-54
2021/04/26 01:10:36;;;;;;;8.25;2.55;;;6.10;65.50;;;-147.08;100.00;65180.75;5109843;27;20864;-52
2021/04/26 01:13:40;;;;;;;6.80;2.92;;;6.20;65.30;;;-147.08;100.00;65180.75;5109668;27;20361;-54
2021/04/26 01:16:38;;;;;;;8.60;2.90;;;6.10;65.20;;;-147.08;100.00;65180.75;5130426;27;20123;-55
2021/04/26 01:20:06;;;;;;;8.95;2.67;;;6.00;65.70;;;5.28;100.00;65180.75;5109895;27;20358;-53
2021/04/26 01:23:09;;;;;;;8.40;2.60;;;6.00;65.40;;;-147.08;100.00;65180.75;5110138;27;20687;-54
2021/04/26 01:25:49;;;;;;;9.93;2.83;;;6.10;64.80;;;-147.08;100.00;65180.75;5124890;27;736414;-53
2021/04/26 01:28:52;;;;;;;8.07;2.47;;;6.20;64.40;;;-147.08;0.00;65180.75;5113228;27;721992;-51
2021/04/26 01:31:27;;;;;;;6.68;2.47;;;6.10;64.60;;;-147.08;0.00;65180.75;5095035;28;20105;-53
2021/04/26 01:33:58;;;;;;;8.93;2.90;;;6.10;64.60;;;-147.08;0.00;65180.75;5108256;28;20058;-51
2021/04/26 01:37:04;;;;;;;7.65;2.45;;;6.20;64.40;;;-147.08;0.00;65180.75;5079348;28;20044;-52
2021/04/26 01:39:31;;;;;;;7.05;2.63;;;6.10;64.50;;;-147.08;0.00;65180.75;5105407;28;20980;-55
2021/04/26 01:42:00;;;;;;;7.47;2.90;;;6.00;64.60;;;-147.08;0.00;65180.75;5106866;28;20525;-55
2021/04/26 01:44:26;;;;;;;9.70;2.83;;;6.10;64.40;;;-147.08;0.00;65180.75;5107298;28;20490;-54
2021/04/26 01:46:54;;;;;;;7.57;2.85;;;6.10;64.20;;;-147.08;0.00;65180.75;5090601;28;20068;-57
2021/04/26 01:49:22;;;;;;;13.02;2.65;;;6.10;64.20;;;-147.08;0.00;65180.75;5090002;28;20056;-52
2021/04/26 01:51:50;;;;;;;8.35;2.72;;;6.20;63.80;;;-147.08;0.00;65180.75;5086795;28;20040;-53
2021/04/26 01:54:17;;;;;;;8.75;2.95;;;6.20;63.80;;;-147.08;0.00;65180.75;5100623;28;20067;-54
2021/04/26 01:56:45;;;;;;;5.80;2.10;;;6.10;63.90;;;-147.08;0.00;65180.75;5090007;28;20055;-52
2021/04/26 01:59:17;;;;;;;7.47;2.50;;;5.90;64.70;;;-147.08;0.00;65180.75;5089934;28;20043;-51
2021/04/26 02:01:47;;;;;;;7.05;3.20;;;5.90;64.50;;;-147.08;0.00;65180.75;5089901;28;20036;-53
2021/04/26 02:04:14;;;;;;;9.15;2.80;;;5.90;64.40;;;-147.08;0.00;65180.75;5086575;28;20044;-52
2021/04/26 02:06:50;;;;;;;11.05;2.85;;;5.90;64.50;;;-147.08;0.00;65180.75;5091805;28;20068;-54
2021/04/26 02:11:39;;;;;;;10.93;3.08;;;5.80;64.60;;;-147.08;100.00;65180.75;5109854;27;20353;-54
2021/04/26 02:14:21;;;;;;;9.98;3.03;;;5.70;64.90;;;-147.08;100.00;65180.75;5109994;27;20359;-57
2021/04/26 02:17:00;;;;;;;9.65;3.30;;;5.60;65.60;;;-147.08;100.00;65180.75;5109893;27;20351;-54
2021/04/26 02:19:41;;;;;;;8.25;2.83;;;5.50;66.10;;;-147.08;100.00;65180.75;5067508;28;20881;-54
2021/04/26 02:22:20;;;;;;;11.38;3.00;;;5.40;66.10;;;4.65;100.00;65180.75;5106847;27;20363;-54
2021/04/26 02:25:11;;;;;;;11.18;3.10;;;5.50;65.70;;;-147.08;100.00;65180.75;5109326;27;20882;-55
2021/04/26 02:27:50;;;;;;;8.70;2.88;;;5.50;65.60;;;-147.08;100.00;65180.75;5109940;27;20351;-54
2021/04/26 02:30:30;;;;;;;9.80;3.25;;;5.50;65.60;;;-147.08;100.00;65180.75;5109922;27;20883;-54
2021/04/26 02:33:17;;;;;;;5.57;2.42;;;5.50;65.70;;;-147.08;100.00;65180.75;5089322;28;20036;-54
2021/04/26 02:36:13;;;;;;;9.07;3.10;;;5.50;65.20;;;-147.08;100.00;65180.75;5109819;27;20853;-53
2021/04/26 02:38:56;;;;;;;6.57;2.30;;;5.60;65.10;;;-147.08;100.00;65180.75;5088307;27;1420906;-55
2021/04/26 02:41:40;;;;;;;7.95;3.00;;;5.50;64.90;;;4.72;100.00;65180.75;5128699;27;729563;-54
2021/04/26 02:44:18;;;;;;;7.88;3.08;;;5.50;65.10;;;4.74;100.00;65180.75;5123551;27;20084;-52
2021/04/26 02:47:04;;;;;;;8.00;2.88;;;5.50;65.00;;;-147.08;100.00;65180.75;5110053;27;20351;-53
2021/04/26 02:49:47;;;;;;;11.65;2.88;;;5.50;64.90;;;-147.08;100.00;65180.75;5089646;28;20114;-54
2021/04/26 02:52:16;;;;;;;12.77;3.28;;;5.50;65.20;;;-147.08;100.00;65180.75;5101053;28;20048;-55
2021/04/26 02:54:54;;;;;;;9.32;2.75;;;5.50;64.90;;;4.85;100.00;65180.75;5127568;27;722813;-52
2021/04/26 02:57:35;;;;;;;8.32;2.72;;;5.60;64.40;;;-147.08;100.00;65180.75;5123805;27;725044;-52
2021/04/26 03:00:19;;;;;;;5.25;2.47;;;5.60;64.20;;;4.87;100.00;65180.75;5110243;27;20347;-52
2021/04/26 03:03:06;;;;;;;7.82;2.45;;;5.60;64.10;;;-147.08;100.00;65180.75;5089329;28;20040;-53
2021/04/26 03:08:06;;;;;;;8.82;3.22;;;5.60;64.20;;;-147.08;100.00;65180.75;5107592;27;20355;-53
2021/04/26 03:10:48;;;;;;;8.60;2.70;;;5.40;64.80;;;-147.08;100.00;65180.75;5110058;27;20355;-54
2021/04/26 03:13:16;;;;;;;9.13;2.92;;;5.50;64.60;;;-147.08;100.00;65180.75;5104749;28;20048;-52
2021/04/26 03:15:57;;;;;;;7.60;2.58;;;5.50;64.10;;;-147.08;100.00;65180.75;5109914;27;20352;-52
2021/04/26 03:18:40;;;;;;;10.75;3.33;;;5.50;64.50;;;-147.08;100.00;65180.75;5109952;27;20674;-53
2021/04/26 03:21:20;;;;;;;7.75;2.58;;;5.50;64.00;;;-147.08;100.00;65180.75;5109693;27;20359;-51
2021/04/26 03:24:06;;;;;;;6.32;2.60;;;5.50;64.20;;;-147.08;100.00;65180.75;5110021;27;20347;-54
2021/04/26 03:26:47;;;;;;;4.93;2.60;;;5.50;64.20;;;4.68;100.00;65180.75;5139960;27;726805;-55
2021/04/26 03:29:27;;;;;;;7.63;2.47;;;5.50;64.00;;;-147.08;100.00;65180.75;5109855;27;20361;-53
2021/04/26 03:32:07;;;;;;;7.22;2.55;;;5.30;64.50;;;-147.08;100.00;65180.75;5138596;27;730213;-55
2021/04/26 03:34:55;;;;;;;6.85;2.53;;;5.20;64.70;;;-147.08;100.00;65180.75;5116805;27;731038;-53
2021/04/26 03:37:36;;;;;;;8.02;3.30;;;5.10;65.00;;;-147.08;100.00;65180.75;5109512;27;20347;-51
2021/04/26 03:40:25;;;;;;;8.98;3.30;;;5.20;64.90;;;-147.08;100.00;65180.75;5109951;27;20357;-55
2021/04/26 03:43:05;;;;;;;9.77;3.05;;;5.10;65.30;;;-147.08;0.00;65180.75;5119843;27;729849;-53
2021/04/26 03:46:04;;;;;;;7.45;2.63;;;5.00;65.50;;;-147.08;100.00;65180.75;5089516;27;20888;-54
2021/04/26 03:49:04;;;;;;;7.95;2.65;;;5.10;65.20;;;-147.08;100.00;65180.75;5109983;27;20353;-54
2021/04/26 03:52:00;;;;;;;;;;;5.10;65.00;;;4.24;100.00;65180.75;5047027;28;20183;-51
2021/04/26 03:54:53;;;;;;;8.18;2.70;;;5.00;65.20;;;-147.08;100.00;65180.75;5046926;28;20399;-52
2021/04/26 03:57:19;;;;;;;6.35;2.78;;;5.00;65.30;;;-147.08;100.00;65180.75;5046864;28;20125;-54
2021/04/26 03:59:46;;;;;;;;;;;5.00;65.10;;;-147.08;100.00;65180.75;5031362;28;20500;-52
2021/04/26 04:02:13;;;;;;;8.70;3.08;;;4.90;65.50;;;-147.08;100.00;65180.75;5036506;28;20440;-52
2021/04/26 04:04:44;;;;;;;4.13;2.30;;;4.90;65.80;;;-147.08;100.00;65180.75;5052355;28;20041;-53
2021/04/26 04:07:29;;;;;;;6.85;2.53;;;4.90;65.60;;;-147.08;100.00;65180.75;5052833;28;20053;-56
2021/04/26 04:10:16;;;;;;;6.93;2.60;;;5.00;65.30;;;-147.08;100.00;65180.75;5040556;28;20057;-52
2021/04/26 04:13:02;;;;;;;7.55;2.90;;;5.00;65.30;;;-147.08;100.00;65180.75;5049276;28;20041;-52
2021/04/26 04:15:32;;;;;;;7.43;2.80;;;5.10;64.90;;;-147.08;100.00;65180.75;5047243;28;20048;-54
2021/04/26 04:18:00;;;;;;;6.63;2.78;;;5.10;64.70;;;-147.08;100.00;65180.75;5046505;28;20129;-55
2021/04/26 04:20:32;;;;;;;7.40;2.88;;;5.10;64.60;;;-147.08;100.00;65180.75;5029640;28;20053;-54
2021/04/26 04:22:59;;;;;;;8.43;2.40;;;5.10;64.60;;;-147.08;100.00;65180.75;5029783;28;20053;-54
2021/04/26 04:25:26;;;;;;;9.55;3.08;;;5.00;65.00;;;-147.08;100.00;65180.75;5029964;28;20056;-57
2021/04/26 04:27:56;;;;;;;9.30;3.13;;;5.00;65.20;;;-147.08;100.00;65180.75;5058465;28;20127;-53
2021/04/26 04:30:34;;;;;;;9.02;2.88;;;5.00;65.10;;;4.32;100.00;65180.75;5110452;27;730727;-55
2021/04/26 04:33:21;;;;;;;6.80;2.53;;;5.10;65.00;;;-147.08;100.00;65180.75;5109536;28;20071;-55
2021/04/26 04:36:07;;;;;;;8.07;3.03;;;5.10;65.40;;;-147.08;100.00;65180.75;5109497;28;20116;-55
2021/04/26 04:38:52;;;;;;;8.55;3.08;;;5.10;64.90;;;-147.08;100.00;65180.75;5109430;28;20050;-56
2021/04/26 04:41:49;;;;;;;6.55;2.95;;;5.00;65.00;;;-147.08;100.00;65180.75;5110078;27;20373;-56
2021/04/26 04:44:28;;;;;;;6.82;2.50;;;5.00;65.10;;;-147.08;0.00;65180.75;5134760;27;736347;-55
2021/04/26 04:46:54;;;;;;;;;;;4.90;65.30;;;-147.08;0.00;65180.75;5110219;28;20044;-55
2021/04/26 04:49:26;;;;;;;6.70;2.30;;;4.90;65.80;;;-147.08;0.00;65180.75;5114316;28;19926;-55
2021/04/26 04:52:08;;;;;;;4.65;2.40;;;4.80;65.80;;;-147.08;100.00;65180.75;5109983;27;20359;-54
2021/04/26 04:54:47;;;;;;;5.63;2.45;;;4.80;66.00;;;-147.08;100.00;65180.75;5110053;27;20363;-54
2021/04/26 04:57:26;;;;;;;10.50;2.80;;;5.00;65.70;;;-147.08;0.00;65180.75;5113120;27;727447;-54
2021/04/26 05:00:06;;;;;;;9.05;2.58;;;5.00;65.30;;;-147.08;100.00;65180.75;5110202;27;20351;-54
2021/04/26 05:03:03;;;;;;;6.65;2.47;;;5.00;65.40;;;-147.08;100.00;65180.75;5109323;27;20871;-54
2021/04/26 05:06:00;;;;;;;8.38;3.03;;;4.90;65.30;;;4.28;0.00;65180.75;5109812;27;20343;-54
2021/04/26 05:08:57;;;;;;;6.57;2.83;;;5.00;65.60;;;4.30;100.00;65180.75;5109971;27;20868;-54
2021/04/26 05:11:54;;;;;;;5.45;2.58;;;5.00;65.30;;;-147.08;0.00;65180.75;5120735;27;719079;-54
2021/04/26 05:14:56;;;;;;;7.18;2.70;;;5.10;65.30;;;4.32;0.00;65180.75;5086420;28;20043;-53
2021/04/26 05:17:25;;;;;;;8.85;2.60;;;5.00;65.30;;;4.28;0.00;65180.75;5086505;28;20052;-55
2021/04/26 05:19:53;;;;;;;8.52;2.45;;;5.00;65.60;;;-147.08;0.00;65180.75;5086647;28;20086;-51
2021/04/26 05:22:19;;;;;;;5.15;2.63;;;4.90;65.90;;;-147.08;0.00;65180.75;5069999;28;20075;-51
2021/04/26 05:24:56;;;;;;;8.32;2.80;;;4.90;65.80;;;-147.08;0.00;65180.75;5086483;28;20082;-54
2021/04/26 05:27:24;;;;;;;6.35;2.45;;;4.90;66.10;;;-147.08;0.00;65180.75;5070956;28;20132;-51
2021/04/26 05:29:51;;;;;;;6.88;3.00;;;4.90;66.10;;;-147.08;0.00;65180.75;5086659;28;20418;-55
2021/04/26 05:32:20;;;;;;;5.78;2.20;;;4.90;66.20;;;4.28;0.00;65180.75;5069195;28;20052;-51
2021/04/26 05:34:49;;;;;;;7.25;2.80;;;4.90;66.40;;;-147.08;0.00;65180.75;5069696;28;20048;-51
2021/04/26 05:37:15;;;;;;;;;;;5.00;66.10;;;-147.08;0.00;65180.75;5069500;28;20044;-55
2021/04/26 05:39:43;;;;;;;5.45;2.20;;;5.10;65.80;;;-147.08;0.00;65180.75;5086484;28;20342;-52
2021/04/26 05:42:10;;;;;;;6.55;3.00;;;5.10;65.70;;;-147.08;0.00;65180.75;5067615;28;20060;-53
2021/04/26 05:44:37;;;;;;;7.75;2.63;;;5.10;65.50;;;-147.08;0.00;65180.75;5086619;28;20650;-52
2021/04/26 05:47:42;;;;;;;6.50;2.42;;;5.10;65.70;;;-147.08;0.00;65180.75;5025911;28;20033;-52
2021/04/26 05:50:08;;;;;;;;;;;5.00;66.10;;;-147.08;0.00;65180.75;5078100;28;20418;-52
2021/04/26 05:52:35;;;;;;;10.98;3.17;;;5.00;66.40;;;-147.08;0.00;65180.75;5086223;28;19924;-53
2021/04/26 05:55:02;;;;;;;;;;;5.00;66.90;;;-147.08;0.00;65180.75;5086726;28;20036;-57
2021/04/26 05:57:29;;;;;;;8.23;3.30;;;5.10;65.90;;;-147.08;0.00;65180.75;5085815;28;19966;-54
2021/04/26 05:59:56;;;;;;;;;;;5.10;66.10;;;-147.08;0.00;65180.75;5086518;28;20048;-53
2021/04/26 06:02:23;;;;;;;7.38;2.60;;;5.10;66.00;;;4.55;0.00;65180.75;5085789;28;20390;-54
2021/04/26 06:04:50;;;;;;;5.10;2.72;;;5.10;65.90;;;-147.08;0.00;65180.75;5086008;28;20556;-54
2021/04/26 06:07:17;;;;;;;;;;;5.20;66.30;;;-147.08;0.00;65180.75;5086427;28;20048;-54
2021/04/26 06:09:43;;;;;;;11.35;3.03;;;5.30;65.50;;;-147.08;0.00;65180.75;5079179;28;19920;-53
2021/04/26 06:12:10;;;;;;;;;;;5.30;66.00;;;-147.08;0.00;65180.75;5085929;28;20434;-53
2021/04/26 06:14:37;;;;;;;9.57;3.10;;;5.40;65.50;;;-147.08;0.00;65180.75;5085079;28;19920;-56
2021/04/26 06:17:03;;;;;;;11.95;2.63;;;5.50;64.90;;;-147.08;0.00;65180.75;5084152;28;20077;-53
2021/04/26 06:19:30;;;;;;;9.48;3.35;;;5.50;64.70;;;-147.08;0.00;65180.75;5089696;28;20055;-53
2021/04/26 06:22:09;;;;;;;6.18;2.40;;;5.50;64.80;;;-147.08;100.00;65180.75;5108994;27;20351;-52
2021/04/26 06:24:36;;;;;;;9.63;3.28;;;5.50;65.10;;;-147.08;100.00;65180.75;4383834;28;10000713;-54
2021/04/26 06:27:03;;;;;;;7.82;3.10;;;5.50;64.70;;;-147.08;100.00;65180.75;5085968;28;20052;-54
2021/04/26 06:29:41;;;;;;;8.30;3.15;;;5.50;64.20;;;-147.08;0.00;65180.75;5111263;27;729028;-50
2021/04/26 06:32:19;;;;;;;7.10;3.22;;;5.60;64.50;;;-147.08;100.00;65180.75;5124190;27;725824;-54
2021/04/26 06:34:59;;;;;;;8.98;3.30;;;5.50;64.60;;;-147.08;100.00;65180.75;5109752;27;20351;-53
2021/04/26 06:37:37;;;;;;;9.18;3.40;;;5.50;64.70;;;-147.08;100.00;65180.75;5129708;27;734556;-52
2021/04/26 06:40:16;;;;;;;7.57;2.90;;;5.70;64.50;;;-147.08;100.00;65180.75;5109669;27;20353;-53
2021/04/26 06:42:54;;;;;;;8.73;3.00;;;5.70;64.30;;;-147.08;100.00;65180.75;5120745;27;733271;-55
2021/04/26 06:45:33;;;;;;;10.48;3.20;;;5.70;63.80;;;-147.08;100.00;65180.75;5109225;27;20361;-56
2021/04/26 06:48:15;;;;;;;6.85;2.60;;;5.70;63.50;;;-147.08;100.00;65180.75;5109697;27;20878;-53
2021/04/26 06:50:54;;;;;;;9.95;3.00;;;5.80;63.50;;;-147.08;100.00;65180.75;5129422;27;731848;-55
2021/04/26 06:53:32;;;;;;;8.48;3.13;;;5.80;63.40;;;-147.08;100.00;65180.75;5109595;27;20690;-53
2021/04/26 06:56:12;;;;;;;7.28;3.35;;;5.90;63.20;;;-147.08;100.00;65180.75;5127514;27;755957;-54
2021/04/26 06:58:52;;;;;;;9.15;3.70;;;5.90;63.00;;;-147.08;100.00;65180.75;5109507;27;20362;-54
2021/04/26 07:01:30;;;;;;;9.18;3.45;;;6.00;63.00;;;-147.08;100.00;65180.75;5069403;28;20707;-55
2021/04/26 07:04:09;;;;;;;8.23;3.25;;;6.00;63.10;;;6.14;100.00;65180.75;5109509;27;20362;-54
2021/04/26 07:06:48;;;;;;;8.48;3.60;;;6.00;63.40;;;5.61;100.00;65180.75;5109968;27;20874;-58
2021/04/26 07:09:26;;;;;;;9.98;3.30;;;6.10;63.20;;;5.65;0.00;65180.75;5146058;27;20798;-57
2021/04/26 07:12:05;;;;;;;9.48;3.30;;;6.20;62.70;;;5.75;100.00;65180.75;5110023;27;20875;-56
2021/04/26 07:14:45;;;;;;;7.30;3.22;;;6.20;64.00;;;-147.08;100.00;65180.75;5109020;27;20351;-58
2021/04/26 07:17:24;;;;;;;7.07;3.40;;;6.20;63.10;;;5.72;100.00;65180.75;5088997;28;20371;-57
2021/04/26 07:20:07;;;;;;;6.53;3.13;;;6.20;62.00;;;5.73;100.00;65180.75;5109712;27;20358;-57
2021/04/26 07:22:46;;;;;;;8.45;3.63;;;6.30;62.10;;;5.75;0.00;65180.75;5109744;27;20702;-56
2021/04/26 07:25:25;;;;;;;9.48;3.60;;;6.30;62.30;;;5.78;100.00;65180.75;5109554;27;20363;-55
2021/04/26 07:28:03;;;;;;;8.10;3.00;;;6.30;62.90;;;-147.08;100.00;65180.75;5068362;28;20361;-55
2021/04/26 07:30:41;;;;;;;8.70;3.70;;;6.40;62.30;;;5.98;100.00;65180.75;5124095;27;718779;-56
2021/04/26 07:33:20;;;;;;;6.65;2.97;;;6.50;62.50;;;6.02;100.00;65180.75;5068901;28;20364;-55
2021/04/26 07:35:58;;;;;;;7.05;2.80;;;6.50;61.30;;;6.10;100.00;65180.75;5109760;27;20357;-56
2021/04/26 07:38:36;;;;;;;8.57;3.15;;;6.50;61.50;;;6.14;100.00;65180.75;5109092;27;20351;-54
2021/04/26 07:41:14;;;;;;;11.82;3.28;;;6.60;61.10;;;6.12;100.00;65180.75;5109588;27;20351;-54
2021/04/26 07:43:41;;;;;;;;;;;6.60;61.10;;;-147.08;100.00;65180.75;5088848;28;20044;-55
2021/04/26 07:46:08;;;;;;;8.40;3.47;;;6.60;61.10;;;-147.08;100.00;65180.75;5075216;28;19920;-55
2021/04/26 07:48:47;;;;;;;8.57;3.47;;;6.70;60.80;;;-147.08;100.00;65180.75;5109576;27;20347;-56
2021/04/26 07:51:24;;;;;;;9.68;3.17;;;6.70;60.90;;;-147.08;100.00;65180.75;5120840;27;734566;-58
2021/04/26 07:54:03;;;;;;;10.23;3.53;;;6.70;60.30;;;-147.08;0.00;65180.75;5112845;27;724200;-56
2021/04/26 07:56:41;;;;;;;8.77;3.05;;;6.80;59.90;;;-147.08;100.00;65180.75;5123637;27;726742;-56
2021/04/26 07:59:20;;;;;;;11.90;3.00;;;6.80;60.30;;;-147.08;100.00;65180.75;5109297;27;20355;-57
2021/04/26 08:02:07;;;;;;;7.72;3.17;;;6.90;59.70;;;-147.08;100.00;65180.75;5026998;28;20053;-55
2021/04/26 08:04:54;;;;;;;11.70;3.50;;;6.90;59.60;;;-147.08;100.00;65180.75;4968036;28;20051;-57
2021/04/26 08:07:41;;;;;;;9.07;3.72;;;7.10;59.40;;;-147.08;100.00;65180.75;4908986;29;20056;-58
2021/04/26 08:10:28;;;;;;;6.60;3.15;;;7.20;58.80;;;6.73;100.00;84302.06;4854468;29;20192;-57
2021/04/26 08:13:15;;;;;;;13.52;4.05;;;7.20;58.90;;;6.87;100.00;65180.75;4835334;29;20086;-56
2021/04/26 08:16:02;;;;;;;12.80;3.90;;;7.30;59.40;;;6.94;100.00;65180.75;4781526;30;20152;-58
2021/04/26 08:18:48;;;;;;;22.75;5.90;;;7.30;58.60;;;7.02;100.00;65180.75;4728647;30;20528;-56
2021/04/26 08:21:34;;;;;;;12.43;4.25;;;7.40;58.90;;;-147.08;100.00;65180.75;4664530;30;20049;-54
2021/04/26 08:24:10;;;;;;;9.60;3.90;;;7.50;57.80;;;-147.08;100.00;65180.75;5051100;27;1417353;-55
2021/04/26 08:26:57;;;;;;;14.40;4.53;;;7.50;55.50;;;7.17;100.00;65180.75;5012568;28;20093;-57
2021/04/26 08:29:44;;;;;;;23.50;5.75;;;7.60;55.80;;;-147.08;100.00;65180.75;4987238;28;20608;-57
2021/04/26 08:32:31;;;;;;;12.38;4.22;;;7.60;55.70;;;-147.08;100.00;65180.75;4929479;29;20388;-57
2021/04/26 08:35:18;;;;;;;14.57;5.38;;;7.70;56.40;;;7.47;100.00;65180.75;4872972;29;20068;-55
2021/04/26 08:38:05;;;;;;;11.07;4.07;;;7.70;55.90;;;7.46;100.00;65180.75;4867116;29;20057;-55
2021/04/26 08:40:51;;;;;;;9.88;4.38;;;7.80;54.70;;;7.52;100.00;65180.75;4786746;29;20059;-55
2021/04/26 08:43:38;;;;;;;12.18;4.03;;;7.90;55.70;;;7.55;100.00;65180.75;4799301;29;20059;-54
2021/04/26 08:46:24;;;;;;;17.10;5.95;;;8.00;54.50;;;7.64;100.00;65180.75;4769411;30;20058;-56
2021/04/26 08:48:58;;;;;;;10.52;4.15;;;8.00;56.10;;;7.65;100.00;65180.75;5112844;27;725419;-55
2021/04/26 08:51:47;;;;;;;12.45;4.00;;;8.00;55.00;;;7.72;100.00;65180.75;5046795;28;20053;-55
2021/04/26 08:54:34;;;;;;;15.32;5.78;;;8.10;55.00;;;-147.08;100.00;65180.75;4986894;28;20050;-54
2021/04/26 08:57:21;;;;;;;14.27;5.00;;;8.20;55.50;;;-147.08;100.00;65180.75;4987196;28;20068;-53
2021/04/26 09:00:09;;;;;;;13.98;5.15;;;8.30;54.70;;;-147.08;100.00;65180.75;4929579;29;20056;-54
2021/04/26 09:03:00;;;;;;;11.75;4.18;;;8.30;54.40;;;-147.08;100.00;65180.75;4872525;29;20053;-55
2021/04/26 09:05:30;;;;;;;14.27;5.38;;;8.30;53.90;;;-147.08;100.00;65180.75;4872945;29;20068;-57
2021/04/26 09:07:59;;;;;;;24.33;7.75;;;8.50;51.60;;;-147.08;100.00;65180.75;4856940;29;20090;-57
2021/04/26 09:10:39;;;;;;;10.27;4.00;;;8.50;53.20;;;-147.08;100.00;65180.75;4872541;29;20053;-55
2021/04/26 09:13:31;;;;;;;9.35;3.90;;;8.50;51.60;;;-147.08;100.00;65180.75;4872353;29;20445;-56
2021/04/26 09:16:05;;;;;;;15.45;5.28;;;8.50;52.10;;;-147.08;100.00;65180.75;4873117;29;20081;-56
2021/04/26 09:18:59;;;;;;;11.05;4.50;;;8.60;51.80;;;-147.08;100.00;65180.75;4872828;29;20053;-53
2021/04/26 09:21:44;;;;;;;11.65;3.90;;;8.50;50.40;;;-147.08;100.00;65180.75;4864634;29;20076;-56
2021/04/26 09:24:37;;;;;;;16.52;5.45;;;8.60;49.50;;;-147.08;100.00;65180.75;4888739;29;20065;-51
2021/04/26 09:27:12;;;;;;;22.55;7.13;;;8.80;48.90;;;-147.08;100.00;65180.75;4910115;29;20052;-56
2021/04/26 09:29:40;;;;;;;16.90;6.47;;;8.90;50.70;;;-147.08;100.00;65180.75;4915495;29;20069;-54
2021/04/26 09:32:15;;;;;;;18.73;5.75;;;8.80;47.40;;;-147.08;100.00;65180.75;4945257;29;20871;-56
2021/04/26 09:34:51;;;;;;;9.13;4.13;;;8.80;44.90;;;-147.08;100.00;65180.75;5009257;28;20053;-55
2021/04/26 09:37:27;;;;;;;8.75;4.10;;;8.90;46.10;;;8.62;100.00;65180.75;5031539;28;20042;-55
2021/04/26 09:40:07;;;;;;;10.05;4.03;;;9.00;45.90;;;-147.08;100.00;65180.75;5060827;28;20106;-55
2021/04/26 09:42:56;;;;;;;15.23;4.63;;;9.00;46.30;;;-147.08;100.00;65180.75;5090902;28;20048;-52
2021/04/26 09:45:29;;;;;;;7.50;4.05;;;9.00;46.50;;;8.81;100.00;65180.75;5094063;28;20032;-54
2021/04/26 09:48:19;;;;;;;11.02;4.30;;;9.10;45.90;;;8.85;100.00;84140.19;5088110;28;20059;-56
2021/04/26 09:50:56;;;;;;;12.95;5.22;;;9.20;46.30;;;8.87;100.00;65180.75;5093953;28;20055;-57
2021/04/26 09:53:29;;;;;;;11.55;4.47;;;9.30;46.00;;;-147.08;100.00;65180.75;5090608;28;20127;-55
2021/04/26 09:55:57;;;;;;;14.57;5.10;;;9.30;46.40;;;-147.08;100.00;65180.75;5093996;28;20076;-55
2021/04/26 09:58:24;;;;;;;12.20;4.28;;;9.30;46.20;;;8.92;100.00;65180.75;5088744;28;20040;-57
2021/04/26 10:00:52;;;;;;;11.57;4.70;;;9.20;46.60;;;8.99;100.00;65180.75;5080626;28;20422;-53
2021/04/26 10:03:19;;;;;;;13.98;5.15;;;9.30;46.10;;;9.07;100.00;65180.75;5076963;28;20047;-54
2021/04/26 10:05:49;;;;;;;19.73;6.13;;;9.40;45.10;;;-147.08;100.00;65180.75;5080572;28;20135;-54
2021/04/26 10:08:16;;;;;;;8.55;4.07;;;9.50;45.40;;;9.16;100.00;65180.75;5076846;28;20040;-53
2021/04/26 10:10:45;;;;;;;8.60;3.85;;;9.50;44.80;;;-147.08;100.00;65180.75;5078798;28;20052;-54
2021/04/26 10:13:14;;;;;;;21.25;6.65;;;9.50;44.40;;;9.23;100.00;65180.75;5077727;28;20044;-53
2021/04/26 10:15:41;;;;;;;14.93;4.68;;;9.50;45.40;;;-147.08;100.00;65180.75;5077541;28;20049;-57
2021/04/26 10:18:11;;;;;;;8.50;4.18;;;9.50;45.40;;;9.27;100.00;65180.75;5067593;28;20045;-55
2021/04/26 10:20:42;;;;;;;16.10;5.38;;;9.60;44.30;;;-147.08;100.00;65180.75;5056280;28;20498;-55
2021/04/26 10:23:40;;;;;;;8.65;4.57;;;9.60;46.20;;;9.33;100.00;65180.75;5079105;28;20053;-60
2021/04/26 10:26:50;;;;;;;16.23;5.32;;;9.70;46.30;;;9.48;100.00;65180.75;5076417;28;20071;-55
2021/04/26 10:29:23;;;;;;;15.95;5.35;;;9.80;43.90;;;-147.08;100.00;65180.75;4986795;28;20046;-53
2021/04/26 10:32:02;;;;;;;11.80;4.65;;;9.80;46.90;;;-147.08;100.00;65180.75;4992195;28;20425;-57
2021/04/26 10:34:35;;;;;;;12.23;4.55;;;9.80;44.10;;;-147.08;100.00;65180.75;4992292;28;20049;-56
2021/04/26 10:37:06;;;;;;;21.20;4.78;;;9.80;43.30;;;9.43;100.00;65180.75;4991603;28;20046;-57
2021/04/26 10:39:35;;;;;;;8.85;4.20;;;9.80;43.20;;;188.52;100.00;65180.75;5002037;28;20051;-55
2021/04/26 10:42:10;;;;;;;9.68;4.18;;;9.80;43.00;;;-147.08;100.00;65180.75;4992100;28;20549;-57
2021/04/26 10:44:40;;;;;;;10.55;4.60;;;9.90;42.90;;;-147.08;100.00;65180.75;4992036;28;20038;-54
2021/04/26 10:47:17;;;;;;;15.65;5.57;;;9.90;43.20;;;-147.08;100.00;65180.75;4991666;28;20070;-53
2021/04/26 10:50:00;;;;;;;13.40;5.00;;;9.90;45.00;;;-147.08;100.00;65180.75;4992112;28;20129;-54
2021/04/26 10:52:30;;;;;;;8.70;4.00;;;10.00;44.10;;;-147.08;100.00;65180.75;4991162;28;20489;-54
2021/04/26 10:55:05;;;;;;;13.15;4.72;;;10.10;45.30;;;9.93;100.00;65180.75;4992351;28;20042;-56
2021/04/26 10:57:50;;;;;;;20.25;5.65;;;10.20;45.30;;;-147.08;100.00;65180.75;4992543;28;20046;-55
2021/04/26 11:00:23;;;;;;;13.23;4.45;;;10.30;44.70;;;-147.08;100.00;65180.75;4992627;28;20061;-55
2021/04/26 11:03:11;;;;;;;12.02;4.72;;;10.30;42.80;;;10.01;100.00;65180.75;4992428;28;20058;-55
2021/04/26 11:05:45;;;;;;;10.23;4.20;;;10.40;43.10;;;-147.08;100.00;65180.75;5005863;28;20146;-53